Time;durP1;ratioP1;P1;durP2;ratioP2;P2;SDS_P1;SDS_P2;PMS_P1;PMS_P2;Temp;Humidity;BMP_temperature;BMP_pressure;BME280_temperature;BME280_humidity;BME280_pressure;Samples;Min_cycle;Max_cycle;Signal;HPM_P1;HPM_P2
2023/09/04 00:00:12;;;;;;;;;;;;;;;;;;5110368;28;20014;-71
2023/09/04 00:04:03;;;;;;;;;;;;;;;;;;5091207;27;19923;-70
2023/09/04 00:06:29;;;;;;;;;;;;;;;;;;5091351;28;19916;-70
2023/09/04 00:08:57;;;;;;;;;;;;;;;;;;5091208;28;19909;-71
2023/09/04 00:13:22;;;;;;;;;;;;;;;;;;5092166;27;20296;-70
2023/09/04 00:17:51;;;;;;;;;;;;;;;;;;5091100;27;20233;-70
2023/09/04 00:20:17;;;;;;;;;;;;;;;;;;5091226;28;19912;-70
2023/09/04 00:22:43;;;;;;;;;;;;;;;;;;5091161;28;20346;-70
2023/09/04 00:25:09;;;;;;;;;;;;;;;;;;5090907;28;19916;-70
2023/09/04 00:29:06;;;;;;;;;;;;;;;;;;5091869;27;19917;-70
2023/09/04 00:32:36;;;;;;;;;;;;;;;;;;5090956;28;19913;-70
2023/09/04 00:35:32;;;;;;;;;;;;;;;;;;5091761;27;19916;-70
2023/09/04 00:37:58;;;;;;;;;;;;;;;;;;5090931;28;20395;-70
2023/09/04 00:40:24;;;;;;;;;;;;;;;;;;5091248;28;19916;-70
2023/09/04 00:42:50;;;;;;;;;;;;;;;;;;5091207;28;20272;-70
2023/09/04 00:45:16;;;;;;;;;;;;;;;;;;5090740;28;19909;-70
2023/09/04 00:47:42;;;;;;;;;;;;;;;;;;5091140;28;19919;-71
2023/09/04 00:51:14;;;;;;;;;;;;;;;;;;5111911;27;19916;-70
2023/09/04 00:53:40;;;;;;;;;;;;;;;;;;5109928;28;19998;-70
2023/09/04 00:56:06;;;;;;;;;;;;;;;;;;5111566;28;20256;-70
2023/09/04 00:58:32;;;;;;;;;;;;;;;;;;5111848;28;19914;-70
2023/09/04 01:00:58;;;;;;;;;;;;;;;;;;5111081;28;19984;-70
2023/09/04 01:05:55;;;;;;;;;;;;;;;;;;5091196;28;19912;-70
2023/09/04 01:08:21;;;;;;;;;;;;;;;;;;5090022;28;20329;-70
2023/09/04 01:11:31;;;;;;;;;;;;;;;;;;5112178;27;19930;-70
2023/09/04 01:14:34;;;;;;;;;;;;;;;;;;5091103;27;20340;-70
2023/09/04 01:17:00;;;;;;;;;;;;;;;;;;5091302;28;20007;-70
2023/09/04 01:20:49;;;;;;;;;;;;;;;;;;5091281;27;19917;-70
2023/09/04 01:24:48;;;;;;;;;;;;;;;;;;5132157;27;20006;-70
2023/09/04 01:27:14;;;;;;;;;;;;;;;;;;5131666;28;19955;-71
2023/09/04 01:30:53;;;;;;;;;;;;;;;;;;5111681;27;20273;-71
2023/09/04 01:35:51;;;;;;;;;;;;;;;;;;5091099;27;19916;-71
2023/09/04 01:38:17;;;;;;;;;;;;;;;;;;5089995;28;20360;-71
2023/09/04 01:40:42;;;;;;;;;;;;;;;;;;5091308;28;19962;-70
2023/09/04 01:45:18;;;;;;;;;;;;;;;;;;5091295;27;19917;-71
2023/09/04 01:47:44;;;;;;;;;;;;;;;;;;5091210;28;20003;-71
2023/09/04 01:50:10;;;;;;;;;;;;;;;;;;5090831;28;19961;-71
2023/09/04 01:53:07;;;;;;;;;;;;;;;;;;5112343;27;19926;-70
2023/09/04 01:55:33;;;;;;;;;;;;;;;;;;5111223;28;20006;-70
2023/09/04 01:57:59;;;;;;;;;;;;;;;;;;5111607;28;20423;-70
2023/09/04 02:01:38;;;;;;;;;;;;;;;;;;5092185;27;20279;-70
2023/09/04 02:04:05;;;;;;;;;;;;;;;;;;5090864;28;20007;-70
2023/09/04 02:07:13;;;;;;;;;;;;;;;;;;5112516;27;19916;-70
2023/09/04 02:09:39;;;;;;;;;;;;;;;;;;5111369;28;20007;-70
2023/09/04 02:12:05;;;;;;;;;;;;;;;;;;5110232;28;19954;-70
2023/09/04 02:14:31;;;;;;;;;;;;;;;;;;5110268;28;19908;-71
2023/09/04 02:20:25;;;;;;;;;;;;;;;;;;5112192;27;19923;-70
2023/09/04 02:24:44;;;;;;;;;;;;;;;;;;5111389;27;19919;-71
2023/09/04 02:27:10;;;;;;;;;;;;;;;;;;5111608;28;19916;-70
2023/09/04 02:34:44;;;;;;;;;;;;;;;;;;5112461;27;19916;-70
2023/09/04 02:38:36;;;;;;;;;;;;;;;;;;5070952;28;19917;-72
2023/09/04 02:41:02;;;;;;;;;;;;;;;;;;5071569;28;20412;-70
2023/09/04 02:43:28;;;;;;;;;;;;;;;;;;5070877;28;19909;-71
2023/09/04 02:47:56;;;;;;;;;;;;;;;;;;5091717;28;19916;-71
2023/09/04 02:50:22;;;;;;;;;;;;;;;;;;5091113;28;20011;-71
2023/09/04 02:53:12;;;;;;;;;;;;;;;;;;5111313;27;19916;-70
2023/09/04 02:55:37;;;;;;;;;;;;;;;;;;5111640;28;19930;-70
2023/09/04 02:58:54;;;;;;;;;;;;;;;;;;5091031;27;19916;-70
2023/09/04 03:03:24;;;;;;;;;;;;;;;;;;5091632;27;19916;-71
2023/09/04 03:06:34;;;;;;;;;;;;;;;;;;5091137;27;20402;-71
2023/09/04 03:09:00;;;;;;;;;;;;;;;;;;5091259;28;20007;-71
2023/09/04 03:11:26;;;;;;;;;;;;;;;;;;5091603;28;20364;-71
2023/09/04 03:13:51;;;;;;;;;;;;;;;;;;5090833;28;20287;-71
2023/09/04 03:16:17;;;;;;;;;;;;;;;;;;5091090;28;19962;-71
2023/09/04 03:18:43;;;;;;;;;;;;;;;;;;5091072;28;19958;-71
2023/09/04 03:21:09;;;;;;;;;;;;;;;;;;5090650;28;19999;-71
2023/09/04 03:23:35;;;;;;;;;;;;;;;;;;5090353;28;19908;-72
2023/09/04 03:26:01;;;;;;;;;;;;;;;;;;5091207;28;20023;-71
2023/09/04 03:28:28;;;;;;;;;;;;;;;;;;5090584;28;19913;-71
2023/09/04 03:30:54;;;;;;;;;;;;;;;;;;5090871;28;19934;-71
2023/09/04 03:35:16;;;;;;;;;;;;;;;;;;5152731;27;19922;-70
2023/09/04 03:42:20;;;;;;;;;;;;;;;;;;5070856;28;19917;-71
2023/09/04 03:44:45;;;;;;;;;;;;;;;;;;5071295;28;20015;-71
2023/09/04 03:47:11;;;;;;;;;;;;;;;;;;5069683;28;20341;-71
2023/09/04 03:51:11;;;;;;;;;;;;;;;;;;5112056;27;19919;-70
2023/09/04 03:53:37;;;;;;;;;;;;;;;;;;5111675;28;20003;-70
2023/09/04 04:00:10;;;;;;;;;;;;;;;;;;5112128;27;19916;-70
2023/09/04 04:05:55;;;;;;;;;;;;;;;;;;5153326;27;19915;-70
2023/09/04 04:13:20;;;;;;;;;;;;;;;;;;5132138;27;20391;-70
2023/09/04 04:19:15;;;;;;;;;;;;;;;;;;5112378;27;19916;-70
2023/09/04 04:25:34;;;;;;;;;;;;;;;;;;5112092;27;19916;-70
2023/09/04 04:28:00;;;;;;;;;;;;;;;;;;5111932;28;20378;-71
2023/09/04 04:33:23;;;;;;;;;;;;;;;;;;5111999;27;19923;-71
2023/09/04 04:35:49;;;;;;;;;;;;;;;;;;5111625;28;20002;-70
2023/09/04 04:38:44;;;;;;;;;;;;;;;;;;5110492;27;20247;-70
2023/09/04 04:41:10;;;;;;;;;;;;;;;;;;5110628;28;19912;-70
2023/09/04 04:43:36;;;;;;;;;;;;;;;;;;5110851;28;20317;-70
2023/09/04 04:47:44;;;;;;;;;;;;;;;;;;5111278;27;20368;-70
2023/09/04 04:53:36;;;;;;;;;;;;;;;;;;5111599;27;19938;-70
2023/09/04 04:56:02;;;;;;;;;;;;;;;;;;5106590;28;19912;-70
2023/09/04 04:58:28;;;;;;;;;;;;;;;;;;5098385;28;20324;-71
2023/09/04 05:00:54;;;;;;;;;;;;;;;;;;5109465;28;20295;-71
2023/09/04 05:03:19;;;;;;;;;;;;;;;;;;5110069;28;20326;-71
2023/09/04 05:06:11;;;;;;;;;;;;;;;;;;5111575;27;19915;-70
2023/09/04 05:08:38;;;;;;;;;;;;;;;;;;5110044;28;19922;-70
2023/09/04 05:13:38;;;;;;;;;;;;;;;;;;5108529;27;19916;-68
2023/09/04 05:16:05;;;;;;;;;;;;;;;;;;5110733;28;20014;-69
2023/09/04 05:18:33;;;;;;;;;;;;;;;;;;5109446;28;19915;-68
2023/09/04 05:24:19;;;;;;;;;;;;;;;;;;5088597;27;20269;-71
2023/09/04 05:26:45;;;;;;;;;;;;;;;;;;5088359;28;19918;-69
2023/09/04 05:29:11;;;;;;;;;;;;;;;;;;5083436;28;20410;-70
2023/09/04 05:31:37;;;;;;;;;;;;;;;;;;5087560;28;19967;-70
2023/09/04 05:34:12;;;;;;;;;;;;;;;;;;5107405;27;19926;-68
2023/09/04 05:39:28;;;;;;;;;;;;;;;;;;5130200;27;19924;-68
2023/09/04 05:41:54;;;;;;;;;;;;;;;;;;5129802;28;19939;-68
2023/09/04 05:49:22;;;;;;;;;;;;;;;;;;5077074;27;19916;-68
2023/09/04 05:55:09;;;;;;;;;;;;;;;;;;5109608;27;19922;-68
2023/09/04 05:59:32;;;;;;;;;;;;;;;;;;5086931;27;20332;-67
2023/09/04 06:01:58;;;;;;;;;;;;;;;;;;5066550;28;20000;-67
2023/09/04 06:04:24;;;;;;;;;;;;;;;;;;5069232;28;20004;-67
2023/09/04 06:06:50;;;;;;;;;;;;;;;;;;5068479;28;19909;-67
2023/09/04 06:09:17;;;;;;;;;;;;;;;;;;5069047;28;19948;-67
2023/09/04 06:11:47;;;;;;;;;;;;;;;;;;5069155;28;19917;-67
2023/09/04 06:14:13;;;;;;;;;;;;;;;;;;5069401;28;20369;-68
2023/09/04 06:16:39;;;;;;;;;;;;;;;;;;5067271;28;19974;-69
2023/09/04 06:19:05;;;;;;;;;;;;;;;;;;5060590;28;19928;-65
2023/09/04 06:21:31;;;;;;;;;;;;;;;;;;5065170;28;20331;-66
2023/09/04 06:23:57;;;;;;;;;;;;;;;;;;5072294;28;20378;-67
2023/09/04 06:26:23;;;;;;;;;;;;;;;;;;5066704;28;20022;-67
2023/09/04 06:30:26;;;;;;;;;;;;;;;;;;5084773;27;19916;-66
2023/09/04 06:32:52;;;;;;;;;;;;;;;;;;5070038;28;20402;-67
2023/09/04 06:36:12;;;;;;;;;;;;;;;;;;5108856;27;19920;-66
2023/09/04 06:41:43;;;;;;;;;;;;;;;;;;5170370;27;20357;-65
2023/09/04 06:44:09;;;;;;;;;;;;;;;;;;5150200;27;20326;-67
2023/09/04 06:46:35;;;;;;;;;;;;;;;;;;5158268;27;19907;-66
2023/09/04 06:49:01;;;;;;;;;;;;;;;;;;5148644;27;19923;-67
2023/09/04 06:51:28;;;;;;;;;;;;;;;;;;5148454;27;20350;-67
2023/09/04 06:53:54;;;;;;;;;;;;;;;;;;5150195;27;19915;-67
2023/09/04 06:58:10;;;;;;;;;;;;;;;;;;5107810;27;19920;-67
2023/09/04 07:00:36;;;;;;;;;;;;;;;;;;5108965;28;19912;-67
2023/09/04 07:03:02;;;;;;;;;;;;;;;;;;5101393;28;19930;-67
2023/09/04 07:05:28;;;;;;;;;;;;;;;;;;5109141;27;20364;-66
2023/09/04 07:07:54;;;;;;;;;;;;;;;;;;5107981;28;19969;-66
2023/09/04 07:10:20;;;;;;;;;;;;;;;;;;5108709;28;19916;-67
2023/09/04 07:12:46;;;;;;;;;;;;;;;;;;5101061;28;19912;-66
2023/09/04 07:15:12;;;;;;;;;;;;;;;;;;5106417;28;20003;-67
2023/09/04 07:18:56;;;;;;;;;;;;;;;;;;5081987;27;19946;-65
2023/09/04 07:22:57;;;;;;;;;;;;;;;;;;5079381;27;19926;-66
2023/09/04 07:25:23;;;;;;;;;;;;;;;;;;5065604;28;19913;-65
2023/09/04 07:30:15;;;;;;;;;;;;;;;;;;5083245;27;19916;-66
2023/09/04 07:35:15;;;;;;;;;;;;;;;;;;5127413;27;20327;-65
2023/09/04 07:37:40;;;;;;;;;;;;;;;;;;5127194;28;20078;-65
2023/09/04 07:40:08;;;;;;;;;;;;;;;;;;5122012;28;19981;-65
2023/09/04 07:42:34;;;;;;;;;;;;;;;;;;5114999;27;19912;-66
2023/09/04 07:45:00;;;;;;;;;;;;;;;;;;5106277;28;20586;-67
2023/09/04 07:47:26;;;;;;;;;;;;;;;;;;5110090;28;19923;-67
2023/09/04 07:49:53;;;;;;;;;;;;;;;;;;5119155;28;19915;-67
2023/09/04 07:52:19;;;;;;;;;;;;;;;;;;5124788;27;20325;-67
2023/09/04 07:54:46;;;;;;;;;;;;;;;;;;5128161;28;19916;-65
2023/09/04 08:04:04;;;;;;;;;;;;;;;;;;5110315;27;20304;-67
2023/09/04 08:06:30;;;;;;;;;;;;;;;;;;5106179;28;19912;-68
2023/09/04 08:08:56;;;;;;;;;;;;;;;;;;5107934;28;20369;-66
2023/09/04 08:13:28;;;;;;;;;;;;;;;;;;5088079;27;19927;-67
2023/09/04 08:15:54;;;;;;;;;;;;;;;;;;5059071;28;19917;-66
2023/09/04 08:20:41;;;;;;;;;;;;;;;;;;5104844;27;19924;-67
2023/09/04 08:23:09;;;;;;;;;;;;;;;;;;5109500;28;19912;-67
2023/09/04 08:25:40;;;;;;;;;;;;;;;;;;5107644;28;19912;-66
2023/09/04 08:28:06;;;;;;;;;;;;;;;;;;5096143;28;19912;-67
2023/09/04 08:30:32;;;;;;;;;;;;;;;;;;5105114;28;20449;-66
2023/09/04 08:32:58;;;;;;;;;;;;;;;;;;5097694;28;19912;-65
2023/09/04 08:37:29;;;;;;;;;;;;;;;;;;5088640;27;19920;-65
2023/09/04 08:39:55;;;;;;;;;;;;;;;;;;5069050;28;20398;-66
2023/09/04 08:45:42;;;;;;;;;;;;;;;;;;5135939;27;20351;-67
2023/09/04 08:49:04;;;;;;;;;;;;;;;;;;5088396;27;19943;-65
2023/09/04 08:51:31;;;;;;;;;;;;;;;;;;5056588;28;19943;-68
2023/09/04 08:53:57;;;;;;;;;;;;;;;;;;5071121;28;19917;-66
2023/09/04 08:56:23;;;;;;;;;;;;;;;;;;5067017;28;19917;-66
2023/09/04 08:58:50;;;;;;;;;;;;;;;;;;5065450;28;20296;-68
2023/09/04 09:01:17;;;;;;;;;;;;;;;;;;5067626;28;20003;-68
2023/09/04 09:03:43;;;;;;;;;;;;;;;;;;5060636;28;19917;-68
2023/09/04 09:06:28;;;;;;;;;;;;;;;;;;5075903;27;19927;-68
2023/09/04 09:08:56;;;;;;;;;;;;;;;;;;5071896;28;20019;-67
2023/09/04 09:11:23;;;;;;;;;;;;;;;;;;5081882;28;19912;-67
2023/09/04 09:13:49;;;;;;;;;;;;;;;;;;5067492;28;19909;-66
2023/09/04 09:16:15;;;;;;;;;;;;;;;;;;5065597;28;19917;-66
2023/09/04 09:20:28;;;;;;;;;;;;;;;;;;5128860;27;19930;-66
2023/09/04 09:24:35;;;;;;;;;;;;;;;;;;5086258;27;19923;-68
2023/09/04 09:27:48;;;;;;;;;;;;;;;;;;5088306;27;19927;-68
2023/09/04 09:30:14;;;;;;;;;;;;;;;;;;5087583;28;19913;-68
2023/09/04 09:32:40;;;;;;;;;;;;;;;;;;5084245;28;19958;-68
2023/09/04 09:37:17;;;;;;;;;;;;;;;;;;5169403;27;19923;-69
2023/09/04 09:40:10;;;;;;;;;;;;;;;;;;5151312;27;19935;-68
2023/09/04 09:43:02;;;;;;;;;;;;;;;;;;5140911;27;20447;-68
2023/09/04 09:45:28;;;;;;;;;;;;;;;;;;5115844;28;19912;-69
2023/09/04 09:49:22;;;;;;;;;;;;;;;;;;5106915;27;19920;-67
2023/09/04 09:51:48;;;;;;;;;;;;;;;;;;5098108;28;20572;-68
2023/09/04 09:54:14;;;;;;;;;;;;;;;;;;5099721;28;19947;-68
2023/09/04 09:56:40;;;;;;;;;;;;;;;;;;5106131;28;20517;-68
2023/09/04 09:59:06;;;;;;;;;;;;;;;;;;5103214;28;19912;-67
2023/09/04 10:02:50;;;;;;;;;;;;;;;;;;5107942;27;19916;-67
2023/09/04 10:06:59;;;;;;;;;;;;;;;;;;5069651;28;19927;-68
2023/09/04 10:09:25;;;;;;;;;;;;;;;;;;5066982;28;19921;-69
2023/09/04 10:14:26;;;;;;;;;;;;;;;;;;5112526;27;19926;-69
2023/09/04 10:16:52;;;;;;;;;;;;;;;;;;5099439;28;20438;-68
2023/09/04 10:19:19;;;;;;;;;;;;;;;;;;5085726;28;20337;-67
2023/09/04 10:21:46;;;;;;;;;;;;;;;;;;5094124;28;19940;-67
2023/09/04 10:24:11;;;;;;;;;;;;;;;;;;5097179;28;19912;-68
2023/09/04 10:26:38;;;;;;;;;;;;;;;;;;5089444;28;19921;-69
2023/09/04 10:29:05;;;;;;;;;;;;;;;;;;5086842;28;19919;-69
2023/09/04 10:31:32;;;;;;;;;;;;;;;;;;5087702;28;19997;-67
2023/09/04 10:33:58;;;;;;;;;;;;;;;;;;5086731;28;19943;-67
2023/09/04 10:36:24;;;;;;;;;;;;;;;;;;5087582;28;19955;-67
2023/09/04 10:38:50;;;;;;;;;;;;;;;;;;5096299;28;19913;-66
2023/09/04 10:43:43;;;;;;;;;;;;;;;;;;5087516;27;19916;-70
2023/09/04 10:46:09;;;;;;;;;;;;;;;;;;5091039;28;19966;-68
2023/09/04 10:48:35;;;;;;;;;;;;;;;;;;5086920;28;19931;-68
2023/09/04 10:52:29;;;;;;;;;;;;;;;;;;5085962;27;19916;-68
2023/09/04 10:54:55;;;;;;;;;;;;;;;;;;5069559;28;20241;-67
2023/09/04 10:57:22;;;;;;;;;;;;;;;;;;5065700;28;19928;-67
2023/09/04 10:59:48;;;;;;;;;;;;;;;;;;5066606;28;19916;-68
2023/09/04 11:03:00;;;;;;;;;;;;;;;;;;5108991;27;19920;-68
2023/09/04 11:05:26;;;;;;;;;;;;;;;;;;5098769;27;20378;-68
2023/09/04 11:07:52;;;;;;;;;;;;;;;;;;5110036;28;19969;-67
2023/09/04 11:10:18;;;;;;;;;;;;;;;;;;5109620;28;19920;-68
2023/09/04 11:15:15;;;;;;;;;;;;;;;;;;5066208;28;20291;-68
2023/09/04 11:17:41;;;;;;;;;;;;;;;;;;5063932;28;20035;-68
2023/09/04 11:21:57;;;;;;;;;;;;;;;;;;5089453;28;20359;-68
2023/09/04 11:24:23;;;;;;;;;;;;;;;;;;5087017;28;19919;-69
2023/09/04 11:26:49;;;;;;;;;;;;;;;;;;5089020;28;19909;-68
2023/09/04 11:29:15;;;;;;;;;;;;;;;;;;5077149;28;19981;-68
2023/09/04 11:31:41;;;;;;;;;;;;;;;;;;5067825;28;19935;-69
2023/09/04 11:34:07;;;;;;;;;;;;;;;;;;5085204;28;19916;-68
2023/09/04 11:36:33;;;;;;;;;;;;;;;;;;5071002;28;20353;-68
2023/09/04 11:38:59;;;;;;;;;;;;;;;;;;5077762;28;20435;-69
2023/09/04 11:43:14;;;;;;;;;;;;;;;;;;5088941;27;19931;-69
2023/09/04 11:45:40;;;;;;;;;;;;;;;;;;5071083;28;19912;-68
2023/09/04 11:48:06;;;;;;;;;;;;;;;;;;5069778;28;19913;-70
2023/09/04 11:50:32;;;;;;;;;;;;;;;;;;5082852;28;19919;-71
2023/09/04 11:52:58;;;;;;;;;;;;;;;;;;5058185;28;20492;-71
2023/09/04 11:55:24;;;;;;;;;;;;;;;;;;5046657;28;19913;-71
2023/09/04 11:57:50;;;;;;;;;;;;;;;;;;5047607;28;19932;-71
2023/09/04 12:00:16;;;;;;;;;;;;;;;;;;5096696;28;20531;-71
2023/09/04 12:02:43;;;;;;;;;;;;;;;;;;5067684;28;19917;-71
2023/09/04 12:05:09;;;;;;;;;;;;;;;;;;5067758;28;19912;-71
2023/09/04 12:07:35;;;;;;;;;;;;;;;;;;5067037;28;19909;-71
2023/09/04 12:10:01;;;;;;;;;;;;;;;;;;5068565;28;20130;-71
2023/09/04 12:12:27;;;;;;;;;;;;;;;;;;5069417;28;20013;-71
2023/09/04 12:14:53;;;;;;;;;;;;;;;;;;5069164;28;19916;-71
2023/09/04 12:17:19;;;;;;;;;;;;;;;;;;5068971;28;19913;-71
2023/09/04 12:19:45;;;;;;;;;;;;;;;;;;5069033;28;20353;-71
2023/09/04 12:22:11;;;;;;;;;;;;;;;;;;5069415;28;19963;-71
2023/09/04 12:24:37;;;;;;;;;;;;;;;;;;5069726;28;19916;-71
2023/09/04 12:27:03;;;;;;;;;;;;;;;;;;5069842;28;19923;-71
2023/09/04 12:29:29;;;;;;;;;;;;;;;;;;5069589;28;19909;-71
2023/09/04 12:31:55;;;;;;;;;;;;;;;;;;5068480;28;19912;-72
2023/09/04 12:34:21;;;;;;;;;;;;;;;;;;5069233;28;19971;-72
2023/09/04 12:36:47;;;;;;;;;;;;;;;;;;5067352;28;19913;-72
2023/09/04 12:39:13;;;;;;;;;;;;;;;;;;5069001;28;19909;-72
2023/09/04 12:41:39;;;;;;;;;;;;;;;;;;5075618;28;19966;-72
2023/09/04 12:44:05;;;;;;;;;;;;;;;;;;5088008;28;19915;-72
2023/09/04 12:46:31;;;;;;;;;;;;;;;;;;5088635;28;19909;-72
2023/09/04 12:48:57;;;;;;;;;;;;;;;;;;5088666;28;19909;-71
2023/09/04 12:51:25;;;;;;;;;;;;;;;;;;5088313;28;19961;-71
2023/09/04 12:53:51;;;;;;;;;;;;;;;;;;5079387;28;19909;-71
2023/09/04 12:56:17;;;;;;;;;;;;;;;;;;5057734;28;19909;-71
2023/09/04 12:58:42;;;;;;;;;;;;;;;;;;5076137;28;20368;-71
2023/09/04 13:01:09;;;;;;;;;;;;;;;;;;5076416;28;20448;-72
2023/09/04 13:03:35;;;;;;;;;;;;;;;;;;5076374;28;19962;-72
2023/09/04 13:06:00;;;;;;;;;;;;;;;;;;5076120;28;19980;-72
2023/09/04 13:08:26;;;;;;;;;;;;;;;;;;5076112;28;19908;-71
2023/09/04 13:10:52;;;;;;;;;;;;;;;;;;5075722;28;20279;-72
2023/09/04 13:13:18;;;;;;;;;;;;;;;;;;5076083;28;20322;-72
2023/09/04 13:15:44;;;;;;;;;;;;;;;;;;5076206;28;19958;-72
2023/09/04 13:18:10;;;;;;;;;;;;;;;;;;5057649;28;19909;-72
2023/09/04 13:20:36;;;;;;;;;;;;;;;;;;5058013;28;19951;-72
2023/09/04 13:23:02;;;;;;;;;;;;;;;;;;5075770;28;19923;-72
2023/09/04 13:25:28;;;;;;;;;;;;;;;;;;5075279;28;19909;-72
2023/09/04 13:27:54;;;;;;;;;;;;;;;;;;5075717;28;19912;-71
2023/09/04 13:30:20;;;;;;;;;;;;;;;;;;5075741;28;19996;-71
2023/09/04 13:32:46;;;;;;;;;;;;;;;;;;5057288;28;20049;-71
2023/09/04 13:35:12;;;;;;;;;;;;;;;;;;5075607;28;19968;-72
2023/09/04 13:37:38;;;;;;;;;;;;;;;;;;5075553;28;20378;-72
2023/09/04 13:40:04;;;;;;;;;;;;;;;;;;5075250;28;20407;-72
2023/09/04 13:42:30;;;;;;;;;;;;;;;;;;5075205;28;20414;-71
2023/09/04 13:45:24;;;;;;;;;;;;;;;;;;5091340;27;20299;-72
2023/09/04 13:47:50;;;;;;;;;;;;;;;;;;5091151;28;20006;-72
2023/09/04 13:51:23;;;;;;;;;;;;;;;;;;5091900;27;19923;-71
2023/09/04 13:53:49;;;;;;;;;;;;;;;;;;5090772;28;19995;-71
2023/09/04 13:56:15;;;;;;;;;;;;;;;;;;5091253;28;19908;-71
2023/09/04 13:58:41;;;;;;;;;;;;;;;;;;5091202;28;19999;-71
2023/09/04 14:01:09;;;;;;;;;;;;;;;;;;5090699;28;19947;-72
2023/09/04 14:03:35;;;;;;;;;;;;;;;;;;5091078;28;19915;-72
2023/09/04 14:08:32;;;;;;;;;;;;;;;;;;5111250;27;19916;-71
2023/09/04 14:10:57;;;;;;;;;;;;;;;;;;5111690;28;20006;-71
2023/09/04 14:15:12;;;;;;;;;;;;;;;;;;5091007;27;19916;-72
2023/09/04 14:18:58;;;;;;;;;;;;;;;;;;5111925;27;19923;-71
2023/09/04 14:28:55;;;;;;;;;;;;;;;;;;5088986;27;19939;-72
2023/09/04 14:40:58;;;;;;;;;;;;;;;;;;5110018;27;19912;-72
2023/09/04 14:50:07;;;;;;;;;;;;;;;;;;5090348;27;19917;-71
2023/09/04 14:53:00;;;;;;;;;;;;;;;;;;5111651;27;19916;-71
2023/09/04 14:55:49;;;;;;;;;;;;;;;;;;5091525;27;19923;-71
2023/09/04 14:58:15;;;;;;;;;;;;;;;;;;5089948;28;19912;-71
2023/09/04 15:00:44;;;;;;;;;;;;;;;;;;5089980;28;19909;-71
2023/09/04 15:03:10;;;;;;;;;;;;;;;;;;5090870;28;20421;-71
2023/09/04 15:05:36;;;;;;;;;;;;;;;;;;5091161;28;20368;-72
2023/09/04 15:08:02;;;;;;;;;;;;;;;;;;5091080;28;19915;-71
2023/09/04 15:10:28;;;;;;;;;;;;;;;;;;5090750;28;19908;-72
2023/09/04 15:12:54;;;;;;;;;;;;;;;;;;5091130;28;19931;-71
2023/09/04 15:15:20;;;;;;;;;;;;;;;;;;5090864;28;19961;-72
2023/09/04 15:19:36;;;;;;;;;;;;;;;;;;5112169;27;19938;-72
2023/09/04 15:22:17;;;;;;;;;;;;;;;;;;5112062;27;19916;-71
2023/09/04 15:24:43;;;;;;;;;;;;;;;;;;5111619;28;19918;-72
2023/09/04 15:27:30;;;;;;;;;;;;;;;;;;5132503;27;19984;-71
2023/09/04 15:29:56;;;;;;;;;;;;;;;;;;5132291;28;19998;-72
2023/09/04 15:32:22;;;;;;;;;;;;;;;;;;5131694;28;20439;-72
2023/09/04 15:36:19;;;;;;;;;;;;;;;;;;5111858;27;20333;-71
2023/09/04 15:38:45;;;;;;;;;;;;;;;;;;5111202;28;19919;-71
2023/09/04 15:41:11;;;;;;;;;;;;;;;;;;5110318;28;20420;-71
2023/09/04 15:45:04;;;;;;;;;;;;;;;;;;5111397;27;19912;-71
2023/09/04 15:48:09;;;;;;;;;;;;;;;;;;5111754;27;19922;-72
2023/09/04 15:50:35;;;;;;;;;;;;;;;;;;5111811;28;20002;-72
2023/09/04 15:53:01;;;;;;;;;;;;;;;;;;5111526;28;19914;-71
2023/09/04 15:55:27;;;;;;;;;;;;;;;;;;5111541;28;19986;-71
2023/09/04 15:57:53;;;;;;;;;;;;;;;;;;5110310;28;19955;-72
2023/09/04 16:00:20;;;;;;;;;;;;;;;;;;5111009;28;19911;-71
2023/09/04 16:04:22;;;;;;;;;;;;;;;;;;5112516;27;19923;-71
2023/09/04 16:07:11;;;;;;;;;;;;;;;;;;5173443;27;19918;-72
2023/09/04 16:09:58;;;;;;;;;;;;;;;;;;5112644;27;19922;-71
2023/09/04 16:16:08;;;;;;;;;;;;;;;;;;5112593;27;19916;-72
2023/09/04 16:18:34;;;;;;;;;;;;;;;;;;5112233;28;20375;-71
2023/09/04 16:22:16;;;;;;;;;;;;;;;;;;5090934;27;19916;-70
2023/09/04 16:24:42;;;;;;;;;;;;;;;;;;5090364;28;20422;-73
2023/09/04 16:27:08;;;;;;;;;;;;;;;;;;5088812;28;19908;-71
2023/09/04 16:29:34;;;;;;;;;;;;;;;;;;5089323;28;19908;-71
2023/09/04 16:33:21;;;;;;;;;;;;;;;;;;5110004;27;20375;-71
2023/09/04 16:36:40;;;;;;;;;;;;;;;;;;5110371;27;19920;-72
2023/09/04 16:39:31;;;;;;;;;;;;;;;;;;5109603;27;20303;-71
2023/09/04 16:41:57;;;;;;;;;;;;;;;;;;5109230;28;20296;-73
2023/09/04 16:44:23;;;;;;;;;;;;;;;;;;5109582;28;19930;-73
2023/09/04 16:48:41;;;;;;;;;;;;;;;;;;5109243;27;20364;-71
2023/09/04 16:52:05;;;;;;;;;;;;;;;;;;5109585;27;19916;-71
2023/09/04 16:54:31;;;;;;;;;;;;;;;;;;5111695;28;20316;-72
2023/09/04 17:00:44;;;;;;;;;;;;;;;;;;5112550;27;19919;-71
2023/09/04 17:03:10;;;;;;;;;;;;;;;;;;5111448;28;20333;-71
2023/09/04 17:06:10;;;;;;;;;;;;;;;;;;5091474;27;19916;-71
2023/09/04 17:08:35;;;;;;;;;;;;;;;;;;5091473;28;20003;-71
2023/09/04 17:11:03;;;;;;;;;;;;;;;;;;5091067;28;19961;-71
2023/09/04 17:13:29;;;;;;;;;;;;;;;;;;5091185;28;19915;-71
2023/09/04 17:16:54;;;;;;;;;;;;;;;;;;5111047;27;20294;-70
2023/09/04 17:19:20;;;;;;;;;;;;;;;;;;5111588;28;19990;-71
2023/09/04 17:26:17;;;;;;;;;;;;;;;;;;5091469;27;19913;-72
2023/09/04 17:31:10;;;;;;;;;;;;;;;;;;5091521;27;19923;-70
2023/09/04 17:37:41;;;;;;;;;;;;;;;;;;5090339;27;20303;-71
2023/09/04 17:40:52;;;;;;;;;;;;;;;;;;5110450;27;19916;-71
2023/09/04 17:43:18;;;;;;;;;;;;;;;;;;5110709;28;20451;-72
2023/09/04 17:45:44;;;;;;;;;;;;;;;;;;5109379;28;19980;-72
2023/09/04 17:48:10;;;;;;;;;;;;;;;;;;5111228;28;19908;-72
2023/09/04 17:50:36;;;;;;;;;;;;;;;;;;5111438;28;19986;-72
2023/09/04 17:53:03;;;;;;;;;;;;;;;;;;5111091;28;20272;-71
2023/09/04 17:55:29;;;;;;;;;;;;;;;;;;5112044;28;19948;-71
2023/09/04 17:57:55;;;;;;;;;;;;;;;;;;5111703;28;19978;-72
2023/09/04 18:00:21;;;;;;;;;;;;;;;;;;5110847;28;20287;-71
2023/09/04 18:02:47;;;;;;;;;;;;;;;;;;5110026;28;19908;-72
2023/09/04 18:08:22;;;;;;;;;;;;;;;;;;5091776;28;19917;-72
2023/09/04 18:11:29;;;;;;;;;;;;;;;;;;5091809;28;19916;-71
2023/09/04 18:13:55;;;;;;;;;;;;;;;;;;5090928;28;20015;-72
2023/09/04 18:17:24;;;;;;;;;;;;;;;;;;5112173;27;19916;-71
2023/09/04 18:21:14;;;;;;;;;;;;;;;;;;5091111;27;19919;-71
2023/09/04 18:26:22;;;;;;;;;;;;;;;;;;5071214;28;19923;-71
2023/09/04 18:35:27;;;;;;;;;;;;;;;;;;5091054;27;19916;-71
2023/09/04 18:39:35;;;;;;;;;;;;;;;;;;5091453;27;19922;-71
2023/09/04 18:42:01;;;;;;;;;;;;;;;;;;5090964;28;20306;-71
2023/09/04 18:44:27;;;;;;;;;;;;;;;;;;5091288;28;19954;-71
2023/09/04 18:49:00;;;;;;;;;;;;;;;;;;5091070;27;19912;-71
2023/09/04 18:53:08;;;;;;;;;;;;;;;;;;5091931;27;19913;-71
2023/09/04 18:55:34;;;;;;;;;;;;;;;;;;5090961;28;20007;-71
2023/09/04 18:58:00;;;;;;;;;;;;;;;;;;5091348;28;19908;-72
2023/09/04 19:00:26;;;;;;;;;;;;;;;;;;5091296;28;19918;-72
2023/09/04 19:02:52;;;;;;;;;;;;;;;;;;5090818;28;19908;-72
2023/09/04 19:05:47;;;;;;;;;;;;;;;;;;5091656;27;19917;-71
2023/09/04 19:08:13;;;;;;;;;;;;;;;;;;5091340;28;20239;-71
2023/09/04 19:12:13;;;;;;;;;;;;;;;;;;5091579;27;20380;-70
2023/09/04 19:14:41;;;;;;;;;;;;;;;;;;5091313;28;20348;-70
2023/09/04 19:17:07;;;;;;;;;;;;;;;;;;5090740;28;19923;-70
2023/09/04 19:24:26;;;;;;;;;;;;;;;;;;5091220;27;20380;-70
2023/09/04 19:26:52;;;;;;;;;;;;;;;;;;5091308;28;20003;-71
2023/09/04 19:29:18;;;;;;;;;;;;;;;;;;5091495;28;20326;-71
2023/09/04 19:34:16;;;;;;;;;;;;;;;;;;5089565;27;19916;-71
2023/09/04 19:38:15;;;;;;;;;;;;;;;;;;5091263;27;19918;-73
2023/09/04 19:42:46;;;;;;;;;;;;;;;;;;5091476;28;19916;-71
2023/09/04 19:45:39;;;;;;;;;;;;;;;;;;5091151;27;19912;-73
2023/09/04 19:48:05;;;;;;;;;;;;;;;;;;5091457;28;19913;-72
2023/09/04 19:50:31;;;;;;;;;;;;;;;;;;5091279;28;19909;-71
2023/09/04 19:53:39;;;;;;;;;;;;;;;;;;5091859;27;19916;-71
2023/09/04 19:56:05;;;;;;;;;;;;;;;;;;5091317;28;20018;-71
2023/09/04 19:58:31;;;;;;;;;;;;;;;;;;5091151;28;19909;-71
2023/09/04 20:02:38;;;;;;;;;;;;;;;;;;5091902;27;19923;-71
2023/09/04 20:05:04;;;;;;;;;;;;;;;;;;5091403;28;20439;-71
2023/09/04 20:07:30;;;;;;;;;;;;;;;;;;5090809;28;19912;-71
2023/09/04 20:09:56;;;;;;;;;;;;;;;;;;5089974;28;20331;-71
2023/09/04 20:17:32;;;;;;;;;;;;;;;;;;5091869;27;19919;-71
2023/09/04 20:20:32;;;;;;;;;;;;;;;;;;5091354;27;20015;-72
2023/09/04 20:25:30;;;;;;;;;;;;;;;;;;5092136;27;19922;-72
2023/09/04 20:30:08;;;;;;;;;;;;;;;;;;5091722;27;19916;-71
2023/09/04 20:32:34;;;;;;;;;;;;;;;;;;5091401;28;19999;-72
2023/09/04 20:35:00;;;;;;;;;;;;;;;;;;5090878;28;19916;-72
2023/09/04 20:37:26;;;;;;;;;;;;;;;;;;5091385;28;19908;-72
2023/09/04 20:39:52;;;;;;;;;;;;;;;;;;5091124;28;19944;-72
2023/09/04 20:42:18;;;;;;;;;;;;;;;;;;5090707;28;19916;-72
2023/09/04 20:44:44;;;;;;;;;;;;;;;;;;5091493;28;19954;-72
2023/09/04 20:47:11;;;;;;;;;;;;;;;;;;5090946;28;20368;-72
2023/09/04 20:49:40;;;;;;;;;;;;;;;;;;5089304;28;19956;-72
2023/09/04 20:52:06;;;;;;;;;;;;;;;;;;5090939;28;19909;-72
2023/09/04 20:54:32;;;;;;;;;;;;;;;;;;5089134;28;19909;-72
2023/09/04 20:59:16;;;;;;;;;;;;;;;;;;5112333;27;20303;-71
2023/09/04 21:02:12;;;;;;;;;;;;;;;;;;5091520;27;19923;-71
2023/09/04 21:04:59;;;;;;;;;;;;;;;;;;5092209;27;20240;-72
2023/09/04 23:22:52;;;;;;;;;;;;;;;;;;5091583;28;20019;-71
2023/09/04 23:26:15;;;;;;;;;;;;;;;;;;5112358;27;20421;-71
2023/09/04 23:28:46;;;;;;;;;;;;;;;;;;5111627;28;19912;-72